sensor_id;sensor_type;location;lat;lon;timestamp;temperature;humidity
17986;DHT22;9118;48.122;11.546;2022-08-11T00:02:27;19.40;89.20
17986;DHT22;9118;48.122;11.546;2022-08-11T00:05:02;19.40;89.50
17986;DHT22;9118;48.122;11.546;2022-08-11T00:07:30;19.30;89.50
17986;DHT22;9118;48.122;11.546;2022-08-11T00:09:58;19.30;89.90
17986;DHT22;9118;48.122;11.546;2022-08-11T00:12:26;19.30;90.00
17986;DHT22;9118;48.122;11.546;2022-08-11T00:14:58;19.20;90.10
17986;DHT22;9118;48.122;11.546;2022-08-11T00:17:28;19.20;90.20
17986;DHT22;9118;48.122;11.546;2022-08-11T00:20:06;19.20;90.30
17986;DHT22;9118;48.122;11.546;2022-08-11T00:22:36;19.10;90.40
17986;DHT22;9118;48.122;11.546;2022-08-11T00:25:09;19.10;90.60
17986;DHT22;9118;48.122;11.546;2022-08-11T00:27:38;19.10;90.70
17986;DHT22;9118;48.122;11.546;2022-08-11T00:30:08;19.00;90.80
17986;DHT22;9118;48.122;11.546;2022-08-11T00:32:36;19.00;90.90
17986;DHT22;9118;48.122;11.546;2022-08-11T00:35:10;19.00;90.90
17986;DHT22;9118;48.122;11.546;2022-08-11T00:37:38;19.00;91.00
17986;DHT22;9118;48.122;11.546;2022-08-11T00:40:14;18.90;91.10
17986;DHT22;9118;48.122;11.546;2022-08-11T00:42:47;18.90;91.20
17986;DHT22;9118;48.122;11.546;2022-08-11T00:45:21;18.80;91.20
17986;DHT22;9118;48.122;11.546;2022-08-11T00:47:59;18.80;91.40
17986;DHT22;9118;48.122;11.546;2022-08-11T00:50:40;18.80;91.50
17986;DHT22;9118;48.122;11.546;2022-08-11T00:53:31;18.70;91.60
17986;DHT22;9118;48.122;11.546;2022-08-11T01:02:45;18.60;91.90
17986;DHT22;9118;48.122;11.546;2022-08-11T01:05:42;18.60;92.00
17986;DHT22;9118;48.122;11.546;2022-08-11T01:11:40;18.50;92.20
17986;DHT22;9118;48.122;11.546;2022-08-11T01:14:30;18.50;92.20
17986;DHT22;9118;48.122;11.546;2022-08-11T01:20:41;18.40;92.50
17986;DHT22;9118;48.122;11.546;2022-08-11T01:23:47;18.40;92.60
17986;DHT22;9118;48.122;11.546;2022-08-11T01:29:55;18.30;92.80
17986;DHT22;9118;48.122;11.546;2022-08-11T01:32:55;18.30;92.80
17986;DHT22;9118;48.122;11.546;2022-08-11T01:35:53;18.30;93.00
17986;DHT22;9118;48.122;11.546;2022-08-11T01:38:54;18.30;93.10
17986;DHT22;9118;48.122;11.546;2022-08-11T01:44:57;18.20;93.30
17986;DHT22;9118;48.122;11.546;2022-08-11T01:47:34;18.10;93.50
17986;DHT22;9118;48.122;11.546;2022-08-11T01:53:30;18.10;93.60
17986;DHT22;9118;48.122;11.546;2022-08-11T01:56:12;18.10;93.80
17986;DHT22;9118;48.122;11.546;2022-08-11T01:58:44;18.00;93.80
17986;DHT22;9118;48.122;11.546;2022-08-11T02:01:27;18.00;93.90
17986;DHT22;9118;48.122;11.546;2022-08-11T02:04:14;17.90;94.00
17986;DHT22;9118;48.122;11.546;2022-08-11T02:06:47;17.90;94.10
17986;DHT22;9118;48.122;11.546;2022-08-11T02:09:42;17.90;94.30
17986;DHT22;9118;48.122;11.546;2022-08-11T02:12:17;17.80;94.30
17986;DHT22;9118;48.122;11.546;2022-08-11T02:15:00;17.80;94.40
17986;DHT22;9118;48.122;11.546;2022-08-11T02:17:40;17.80;94.50
17986;DHT22;9118;48.122;11.546;2022-08-11T02:20:17;17.80;94.60
17986;DHT22;9118;48.122;11.546;2022-08-11T02:23:12;17.80;94.70
17986;DHT22;9118;48.122;11.546;2022-08-11T02:26:11;17.80;94.80
17986;DHT22;9118;48.122;11.546;2022-08-11T02:28:54;17.70;94.90
17986;DHT22;9118;48.122;11.546;2022-08-11T02:31:32;17.70;95.00
17986;DHT22;9118;48.122;11.546;2022-08-11T02:34:23;17.70;95.00
17986;DHT22;9118;48.122;11.546;2022-08-11T02:37:00;17.70;95.10
17986;DHT22;9118;48.122;11.546;2022-08-11T02:39:36;17.90;95.20
17986;DHT22;9118;48.122;11.546;2022-08-11T02:42:27;17.60;95.20
17986;DHT22;9118;48.122;11.546;2022-08-11T02:45:17;17.60;95.40
17986;DHT22;9118;48.122;11.546;2022-08-11T02:47:59;17.60;95.50
17986;DHT22;9118;48.122;11.546;2022-08-11T02:50:51;17.60;95.60
17986;DHT22;9118;48.122;11.546;2022-08-11T02:53:27;17.60;95.70
17986;DHT22;9118;48.122;11.546;2022-08-11T02:56:07;17.50;95.80
17986;DHT22;9118;48.122;11.546;2022-08-11T02:58:47;17.50;95.80
17986;DHT22;9118;48.122;11.546;2022-08-11T03:01:41;17.50;95.90
17986;DHT22;9118;48.122;11.546;2022-08-11T03:04:15;17.40;96.00
17986;DHT22;9118;48.122;11.546;2022-08-11T03:06:49;17.40;96.10
17986;DHT22;9118;48.122;11.546;2022-08-11T03:09:23;17.40;96.20
17986;DHT22;9118;48.122;11.546;2022-08-11T03:11:56;17.40;96.40
17986;DHT22;9118;48.122;11.546;2022-08-11T03:14:53;17.40;96.50
17986;DHT22;9118;48.122;11.546;2022-08-11T03:17:45;17.40;96.50
17986;DHT22;9118;48.122;11.546;2022-08-11T03:20:31;17.30;96.60
17986;DHT22;9118;48.122;11.546;2022-08-11T03:23:06;17.40;96.80
17986;DHT22;9118;48.122;11.546;2022-08-11T03:25:43;17.40;96.80
17986;DHT22;9118;48.122;11.546;2022-08-11T03:28:24;17.30;96.90
17986;DHT22;9118;48.122;11.546;2022-08-11T03:31:06;17.30;96.90
17986;DHT22;9118;48.122;11.546;2022-08-11T03:33:40;17.30;97.10
17986;DHT22;9118;48.122;11.546;2022-08-11T03:36:50;17.30;97.10
17986;DHT22;9118;48.122;11.546;2022-08-11T03:39:23;17.20;97.20
17986;DHT22;9118;48.122;11.546;2022-08-11T03:42:03;17.20;97.40
17986;DHT22;9118;48.122;11.546;2022-08-11T03:44:42;17.20;97.50
17986;DHT22;9118;48.122;11.546;2022-08-11T03:50:11;17.10;97.80
17986;DHT22;9118;48.122;11.546;2022-08-11T03:52:52;17.10;98.00
17986;DHT22;9118;48.122;11.546;2022-08-11T03:55:32;17.00;98.00
17986;DHT22;9118;48.122;11.546;2022-08-11T03:58:35;17.00;98.30
17986;DHT22;9118;48.122;11.546;2022-08-11T04:04:27;17.00;98.50
17986;DHT22;9118;48.122;11.546;2022-08-11T04:10:48;17.00;98.50
17986;DHT22;9118;48.122;11.546;2022-08-11T04:16:40;17.00;98.80
17986;DHT22;9118;48.122;11.546;2022-08-11T04:19:53;17.00;98.90
17986;DHT22;9118;48.122;11.546;2022-08-11T04:25:51;17.00;99.00
17986;DHT22;9118;48.122;11.546;2022-08-11T04:28:41;17.00;99.10
17986;DHT22;9118;48.122;11.546;2022-08-11T04:31:33;17.00;99.20
17986;DHT22;9118;48.122;11.546;2022-08-11T04:34:33;17.00;99.30
17986;DHT22;9118;48.122;11.546;2022-08-11T04:37:34;17.00;99.30
17986;DHT22;9118;48.122;11.546;2022-08-11T04:46:28;17.00;99.60
17986;DHT22;9118;48.122;11.546;2022-08-11T04:49:21;17.00;99.60
17986;DHT22;9118;48.122;11.546;2022-08-11T04:52:28;17.00;99.60
17986;DHT22;9118;48.122;11.546;2022-08-11T04:59:00;17.00;99.80
17986;DHT22;9118;48.122;11.546;2022-08-11T05:02:06;17.10;99.70
17986;DHT22;9118;48.122;11.546;2022-08-11T05:04:50;17.10;99.60
17986;DHT22;9118;48.122;11.546;2022-08-11T05:10:58;17.20;99.70
17986;DHT22;9118;48.122;11.546;2022-08-11T05:13:29;17.20;99.70
17986;DHT22;9118;48.122;11.546;2022-08-11T05:16:18;17.30;99.70
17986;DHT22;9118;48.122;11.546;2022-08-11T05:19:04;17.30;99.70
17986;DHT22;9118;48.122;11.546;2022-08-11T05:21:52;17.30;99.60
17986;DHT22;9118;48.122;11.546;2022-08-11T05:24:42;17.40;99.80
17986;DHT22;9118;48.122;11.546;2022-08-11T05:27:38;17.40;99.80
17986;DHT22;9118;48.122;11.546;2022-08-11T05:30:25;17.40;99.80
17986;DHT22;9118;48.122;11.546;2022-08-11T05:33:22;17.40;99.80
17986;DHT22;9118;48.122;11.546;2022-08-11T05:36:14;17.50;99.90
17986;DHT22;9118;48.122;11.546;2022-08-11T05:38:53;17.50;99.70
17986;DHT22;9118;48.122;11.546;2022-08-11T05:41:40;17.60;99.60
17986;DHT22;9118;48.122;11.546;2022-08-11T05:44:28;17.70;99.50
17986;DHT22;9118;48.122;11.546;2022-08-11T05:47:21;17.70;99.40
17986;DHT22;9118;48.122;11.546;2022-08-11T05:50:09;17.80;99.40
17986;DHT22;9118;48.122;11.546;2022-08-11T05:52:54;17.80;99.40
17986;DHT22;9118;48.122;11.546;2022-08-11T05:55:40;17.80;99.40
17986;DHT22;9118;48.122;11.546;2022-08-11T05:58:26;17.90;99.40
17986;DHT22;9118;48.122;11.546;2022-08-11T06:01:00;18.00;99.50
17986;DHT22;9118;48.122;11.546;2022-08-11T06:03:29;18.00;99.30
17986;DHT22;9118;48.122;11.546;2022-08-11T06:05:57;18.10;99.30
17986;DHT22;9118;48.122;11.546;2022-08-11T06:08:29;18.10;99.20
17986;DHT22;9118;48.122;11.546;2022-08-11T06:11:00;18.20;99.10
17986;DHT22;9118;48.122;11.546;2022-08-11T06:13:28;18.20;99.10
17986;DHT22;9118;48.122;11.546;2022-08-11T06:15:56;18.20;99.20
17986;DHT22;9118;48.122;11.546;2022-08-11T06:18:26;18.20;99.20
17986;DHT22;9118;48.122;11.546;2022-08-11T06:20:55;18.30;99.20
17986;DHT22;9118;48.122;11.546;2022-08-11T06:23:31;18.30;99.10
17986;DHT22;9118;48.122;11.546;2022-08-11T06:25:59;18.40;99.30
17986;DHT22;9118;48.122;11.546;2022-08-11T06:28:31;18.40;99.10
17986;DHT22;9118;48.122;11.546;2022-08-11T06:30:59;18.50;99.10
17986;DHT22;9118;48.122;11.546;2022-08-11T06:33:36;18.50;99.00
17986;DHT22;9118;48.122;11.546;2022-08-11T06:36:13;18.60;99.10
17986;DHT22;9118;48.122;11.546;2022-08-11T06:38:56;18.70;99.10
17986;DHT22;9118;48.122;11.546;2022-08-11T06:41:29;18.70;99.00
17986;DHT22;9118;48.122;11.546;2022-08-11T06:44:21;18.70;99.00
17986;DHT22;9118;48.122;11.546;2022-08-11T06:46:51;18.70;99.00
17986;DHT22;9118;48.122;11.546;2022-08-11T06:49:31;18.80;99.10
17986;DHT22;9118;48.122;11.546;2022-08-11T06:52:16;18.80;99.20
17986;DHT22;9118;48.122;11.546;2022-08-11T06:54:50;18.80;99.10
17986;DHT22;9118;48.122;11.546;2022-08-11T06:57:31;18.80;99.00
17986;DHT22;9118;48.122;11.546;2022-08-11T07:00:17;18.90;99.10
17986;DHT22;9118;48.122;11.546;2022-08-11T07:02:59;18.90;99.10
17986;DHT22;9118;48.122;11.546;2022-08-11T07:05:38;19.00;98.90
17986;DHT22;9118;48.122;11.546;2022-08-11T07:08:37;19.10;99.10
17986;DHT22;9118;48.122;11.546;2022-08-11T07:12:06;19.20;98.90
17986;DHT22;9118;48.122;11.546;2022-08-11T07:14:55;19.20;98.70
17986;DHT22;9118;48.122;11.546;2022-08-11T07:17:43;19.30;98.60
17986;DHT22;9118;48.122;11.546;2022-08-11T07:20:14;19.30;98.40
17986;DHT22;9118;48.122;11.546;2022-08-11T07:23:02;19.40;98.20
17986;DHT22;9118;48.122;11.546;2022-08-11T07:25:51;19.50;98.20
17986;DHT22;9118;48.122;11.546;2022-08-11T07:28:45;19.50;97.90
17986;DHT22;9118;48.122;11.546;2022-08-11T07:31:29;19.60;98.00
17986;DHT22;9118;48.122;11.546;2022-08-11T07:34:09;19.60;97.80
17986;DHT22;9118;48.122;11.546;2022-08-11T07:36:41;19.70;98.00
17986;DHT22;9118;48.122;11.546;2022-08-11T07:39:17;19.70;97.80
17986;DHT22;9118;48.122;11.546;2022-08-11T07:41:46;19.80;97.70
17986;DHT22;9118;48.122;11.546;2022-08-11T07:44:15;19.90;97.60
17986;DHT22;9118;48.122;11.546;2022-08-11T07:46:47;20.00;97.50
17986;DHT22;9118;48.122;11.546;2022-08-11T07:49:35;20.00;97.30
17986;DHT22;9118;48.122;11.546;2022-08-11T07:52:21;20.10;97.30
17986;DHT22;9118;48.122;11.546;2022-08-11T07:55:02;20.20;97.20
17986;DHT22;9118;48.122;11.546;2022-08-11T07:57:31;20.30;97.10
17986;DHT22;9118;48.122;11.546;2022-08-11T08:00:16;20.40;97.10
17986;DHT22;9118;48.122;11.546;2022-08-11T08:03:03;20.40;97.10
17986;DHT22;9118;48.122;11.546;2022-08-11T08:05:49;20.50;97.10
17986;DHT22;9118;48.122;11.546;2022-08-11T08:08:34;20.60;96.90
17986;DHT22;9118;48.122;11.546;2022-08-11T08:11:22;20.60;96.90
17986;DHT22;9118;48.122;11.546;2022-08-11T08:14:07;20.70;96.90
17986;DHT22;9118;48.122;11.546;2022-08-11T08:16:54;20.70;96.80
17986;DHT22;9118;48.122;11.546;2022-08-11T08:19:39;20.80;96.70
17986;DHT22;9118;48.122;11.546;2022-08-11T08:22:10;20.80;96.70
17986;DHT22;9118;48.122;11.546;2022-08-11T08:24:38;20.90;96.80
17986;DHT22;9118;48.122;11.546;2022-08-11T08:27:08;21.00;96.70
17986;DHT22;9118;48.122;11.546;2022-08-11T08:29:38;21.10;96.60
17986;DHT22;9118;48.122;11.546;2022-08-11T08:32:23;21.10;96.60
17986;DHT22;9118;48.122;11.546;2022-08-11T08:34:53;21.20;96.70
17986;DHT22;9118;48.122;11.546;2022-08-11T08:37:23;21.20;96.70
17986;DHT22;9118;48.122;11.546;2022-08-11T08:39:52;21.30;96.70
17986;DHT22;9118;48.122;11.546;2022-08-11T08:42:24;21.30;96.50
17986;DHT22;9118;48.122;11.546;2022-08-11T08:44:57;21.30;96.70
17986;DHT22;9118;48.122;11.546;2022-08-11T08:47:25;21.30;96.50
17986;DHT22;9118;48.122;11.546;2022-08-11T08:49:59;21.30;96.60
17986;DHT22;9118;48.122;11.546;2022-08-11T08:52:30;21.50;96.50
17986;DHT22;9118;48.122;11.546;2022-08-11T08:55:03;21.50;96.50
17986;DHT22;9118;48.122;11.546;2022-08-11T08:57:36;21.60;96.50
17986;DHT22;9118;48.122;11.546;2022-08-11T09:00:06;21.70;96.50
17986;DHT22;9118;48.122;11.546;2022-08-11T09:02:34;21.70;96.10
17986;DHT22;9118;48.122;11.546;2022-08-11T09:05:03;21.80;95.90
17986;DHT22;9118;48.122;11.546;2022-08-11T09:07:31;21.80;96.10
17986;DHT22;9118;48.122;11.546;2022-08-11T09:09:59;21.90;96.10
17986;DHT22;9118;48.122;11.546;2022-08-11T09:12:27;22.00;95.70
17986;DHT22;9118;48.122;11.546;2022-08-11T09:14:57;22.00;95.60
17986;DHT22;9118;48.122;11.546;2022-08-11T09:17:30;22.10;95.40
17986;DHT22;9118;48.122;11.546;2022-08-11T09:20:01;22.20;95.40
17986;DHT22;9118;48.122;11.546;2022-08-11T09:22:32;22.20;95.30
17986;DHT22;9118;48.122;11.546;2022-08-11T09:25:19;22.30;95.30
17986;DHT22;9118;48.122;11.546;2022-08-11T09:28:04;22.30;95.10
17986;DHT22;9118;48.122;11.546;2022-08-11T09:30:33;22.40;94.80
17986;DHT22;9118;48.122;11.546;2022-08-11T09:33:01;22.50;94.70
17986;DHT22;9118;48.122;11.546;2022-08-11T09:35:33;22.50;94.60
17986;DHT22;9118;48.122;11.546;2022-08-11T09:38:03;22.60;94.30
17986;DHT22;9118;48.122;11.546;2022-08-11T09:40:50;22.60;94.30
17986;DHT22;9118;48.122;11.546;2022-08-11T09:43:19;22.70;94.40
17986;DHT22;9118;48.122;11.546;2022-08-11T09:46:06;22.80;94.00
17986;DHT22;9118;48.122;11.546;2022-08-11T09:48:37;22.90;93.90
17986;DHT22;9118;48.122;11.546;2022-08-11T09:51:06;23.00;93.50
17986;DHT22;9118;48.122;11.546;2022-08-11T09:53:36;23.00;93.10
17986;DHT22;9118;48.122;11.546;2022-08-11T09:56:04;23.10;92.80
17986;DHT22;9118;48.122;11.546;2022-08-11T09:58:47;23.10;92.90
17986;DHT22;9118;48.122;11.546;2022-08-11T10:01:18;23.20;92.90
17986;DHT22;9118;48.122;11.546;2022-08-11T10:03:54;23.40;92.60
17986;DHT22;9118;48.122;11.546;2022-08-11T10:06:25;23.40;92.30
17986;DHT22;9118;48.122;11.546;2022-08-11T10:09:09;23.50;91.90
17986;DHT22;9118;48.122;11.546;2022-08-11T10:11:39;23.50;91.60
17986;DHT22;9118;48.122;11.546;2022-08-11T10:14:07;23.50;91.60
17986;DHT22;9118;48.122;11.546;2022-08-11T10:16:54;23.50;91.60
17986;DHT22;9118;48.122;11.546;2022-08-11T10:19:22;23.60;91.60
17986;DHT22;9118;48.122;11.546;2022-08-11T10:21:51;23.60;91.10
17986;DHT22;9118;48.122;11.546;2022-08-11T10:24:32;23.60;91.00
17986;DHT22;9118;48.122;11.546;2022-08-11T10:27:18;23.70;91.00
17986;DHT22;9118;48.122;11.546;2022-08-11T10:29:45;23.70;90.90
17986;DHT22;9118;48.122;11.546;2022-08-11T10:32:32;23.80;91.00
17986;DHT22;9118;48.122;11.546;2022-08-11T10:35:19;23.80;90.70
17986;DHT22;9118;48.122;11.546;2022-08-11T10:37:47;23.90;90.90
17986;DHT22;9118;48.122;11.546;2022-08-11T10:40:17;23.90;90.90
17986;DHT22;9118;48.122;11.546;2022-08-11T10:42:49;23.90;90.70
17986;DHT22;9118;48.122;11.546;2022-08-11T10:45:33;23.90;90.60
17986;DHT22;9118;48.122;11.546;2022-08-11T10:48:21;24.00;90.80
17986;DHT22;9118;48.122;11.546;2022-08-11T10:50:50;24.10;90.60
17986;DHT22;9118;48.122;11.546;2022-08-11T10:53:37;24.10;90.40
17986;DHT22;9118;48.122;11.546;2022-08-11T10:56:22;24.20;90.30
17986;DHT22;9118;48.122;11.546;2022-08-11T10:59:07;24.30;90.30
17986;DHT22;9118;48.122;11.546;2022-08-11T11:01:38;24.30;90.50
17986;DHT22;9118;48.122;11.546;2022-08-11T11:04:12;24.40;90.10
17986;DHT22;9118;48.122;11.546;2022-08-11T11:06:48;24.40;90.10
17986;DHT22;9118;48.122;11.546;2022-08-11T11:09:19;24.40;90.00
17986;DHT22;9118;48.122;11.546;2022-08-11T11:11:49;24.50;89.90
17986;DHT22;9118;48.122;11.546;2022-08-11T11:14:36;24.50;89.50
17986;DHT22;9118;48.122;11.546;2022-08-11T11:17:27;24.60;89.70
17986;DHT22;9118;48.122;11.546;2022-08-11T11:20:12;24.60;89.50
17986;DHT22;9118;48.122;11.546;2022-08-11T11:22:42;24.60;89.20
17986;DHT22;9118;48.122;11.546;2022-08-11T11:25:37;24.70;89.00
17986;DHT22;9118;48.122;11.546;2022-08-11T11:28:27;24.70;88.90
17986;DHT22;9118;48.122;11.546;2022-08-11T11:31:11;24.80;88.90
17986;DHT22;9118;48.122;11.546;2022-08-11T11:36:46;24.90;88.70
17986;DHT22;9118;48.122;11.546;2022-08-11T11:39:18;24.90;88.20
17986;DHT22;9118;48.122;11.546;2022-08-11T11:41:47;24.90;87.80
17986;DHT22;9118;48.122;11.546;2022-08-11T11:44:15;25.00;87.50
17986;DHT22;9118;48.122;11.546;2022-08-11T11:46:44;25.10;87.10
17986;DHT22;9118;48.122;11.546;2022-08-11T11:49:12;25.00;87.10
17986;DHT22;9118;48.122;11.546;2022-08-11T11:51:40;25.10;87.20
17986;DHT22;9118;48.122;11.546;2022-08-11T11:54:10;25.10;87.00
17986;DHT22;9118;48.122;11.546;2022-08-11T11:56:40;25.20;86.90
17986;DHT22;9118;48.122;11.546;2022-08-11T11:59:07;25.30;86.20
17986;DHT22;9118;48.122;11.546;2022-08-11T12:01:53;25.40;86.00
17986;DHT22;9118;48.122;11.546;2022-08-11T12:04:21;25.40;85.40
17986;DHT22;9118;48.122;11.546;2022-08-11T12:06:49;25.40;86.00
17986;DHT22;9118;48.122;11.546;2022-08-11T12:09:39;25.40;85.10
17986;DHT22;9118;48.122;11.546;2022-08-11T12:12:07;25.50;85.20
17986;DHT22;9118;48.122;11.546;2022-08-11T12:14:52;25.50;84.80
17986;DHT22;9118;48.122;11.546;2022-08-11T12:17:20;25.60;84.10
17986;DHT22;9118;48.122;11.546;2022-08-11T12:19:48;25.60;84.50
17986;DHT22;9118;48.122;11.546;2022-08-11T12:22:15;25.60;84.20
17986;DHT22;9118;48.122;11.546;2022-08-11T12:24:58;25.70;83.90
17986;DHT22;9118;48.122;11.546;2022-08-11T12:27:43;25.80;83.70
17986;DHT22;9118;48.122;11.546;2022-08-11T12:30:12;25.90;83.40
17986;DHT22;9118;48.122;11.546;2022-08-11T12:32:41;26.00;83.40
17986;DHT22;9118;48.122;11.546;2022-08-11T12:35:08;26.10;82.50
17986;DHT22;9118;48.122;11.546;2022-08-11T12:37:39;26.20;82.40
17986;DHT22;9118;48.122;11.546;2022-08-11T12:40:12;26.20;81.80
17986;DHT22;9118;48.122;11.546;2022-08-11T12:43:00;26.20;81.90
17986;DHT22;9118;48.122;11.546;2022-08-11T12:45:46;26.30;82.20
17986;DHT22;9118;48.122;11.546;2022-08-11T12:48:17;26.30;81.90
17986;DHT22;9118;48.122;11.546;2022-08-11T12:51:05;26.30;81.50
17986;DHT22;9118;48.122;11.546;2022-08-11T12:53:54;26.30;81.10
17986;DHT22;9118;48.122;11.546;2022-08-11T12:56:26;26.30;80.60
17986;DHT22;9118;48.122;11.546;2022-08-11T12:59:11;26.30;80.50
17986;DHT22;9118;48.122;11.546;2022-08-11T13:01:57;26.30;80.90
17986;DHT22;9118;48.122;11.546;2022-08-11T13:04:42;26.30;80.60
17986;DHT22;9118;48.122;11.546;2022-08-11T13:07:24;26.40;80.30
17986;DHT22;9118;48.122;11.546;2022-08-11T13:09:53;26.40;80.40
17986;DHT22;9118;48.122;11.546;2022-08-11T13:12:23;26.40;79.80
17986;DHT22;9118;48.122;11.546;2022-08-11T13:15:10;26.50;79.10
17986;DHT22;9118;48.122;11.546;2022-08-11T13:17:38;26.50;79.40
17986;DHT22;9118;48.122;11.546;2022-08-11T13:20:09;26.40;78.90
17986;DHT22;9118;48.122;11.546;2022-08-11T13:22:38;26.40;79.00
17986;DHT22;9118;48.122;11.546;2022-08-11T13:25:06;26.40;79.30
17986;DHT22;9118;48.122;11.546;2022-08-11T13:27:36;26.50;78.90
17986;DHT22;9118;48.122;11.546;2022-08-11T13:30:04;26.60;78.70
17986;DHT22;9118;48.122;11.546;2022-08-11T13:32:49;26.70;78.80
17986;DHT22;9118;48.122;11.546;2022-08-11T13:35:18;26.80;77.90
17986;DHT22;9118;48.122;11.546;2022-08-11T13:37:46;26.80;78.40
17986;DHT22;9118;48.122;11.546;2022-08-11T13:40:16;26.90;78.40
17986;DHT22;9118;48.122;11.546;2022-08-11T13:42:46;26.90;77.70
17986;DHT22;9118;48.122;11.546;2022-08-11T13:45:14;27.00;77.70
17986;DHT22;9118;48.122;11.546;2022-08-11T13:47:42;27.00;77.10
17986;DHT22;9118;48.122;11.546;2022-08-11T13:50:09;27.00;77.20
17986;DHT22;9118;48.122;11.546;2022-08-11T13:52:38;27.10;77.20
17986;DHT22;9118;48.122;11.546;2022-08-11T13:55:08;27.10;77.20
17986;DHT22;9118;48.122;11.546;2022-08-11T13:57:36;27.20;77.00
17986;DHT22;9118;48.122;11.546;2022-08-11T14:00:08;27.20;76.70
17986;DHT22;9118;48.122;11.546;2022-08-11T14:02:39;27.30;77.00
17986;DHT22;9118;48.122;11.546;2022-08-11T14:05:11;27.40;76.60
17986;DHT22;9118;48.122;11.546;2022-08-11T14:07:46;28.20;75.60
17986;DHT22;9118;48.122;11.546;2022-08-11T14:10:16;29.70;73.10
17986;DHT22;9118;48.122;11.546;2022-08-11T14:12:49;31.10;70.20
17986;DHT22;9118;48.122;11.546;2022-08-11T14:15:37;32.30;68.60
17986;DHT22;9118;48.122;11.546;2022-08-11T14:18:10;33.50;65.70
17986;DHT22;9118;48.122;11.546;2022-08-11T14:20:41;34.30;63.80
17986;DHT22;9118;48.122;11.546;2022-08-11T14:23:36;35.00;61.60
17986;DHT22;9118;48.122;11.546;2022-08-11T14:26:04;35.80;60.40
17986;DHT22;9118;48.122;11.546;2022-08-11T14:28:53;36.50;59.10
17986;DHT22;9118;48.122;11.546;2022-08-11T14:31:23;37.00;57.30
17986;DHT22;9118;48.122;11.546;2022-08-11T14:33:53;37.40;56.70
17986;DHT22;9118;48.122;11.546;2022-08-11T14:36:22;37.80;55.70
17986;DHT22;9118;48.122;11.546;2022-08-11T14:38:50;38.60;54.40
17986;DHT22;9118;48.122;11.546;2022-08-11T14:41:20;39.20;53.30
17986;DHT22;9118;48.122;11.546;2022-08-11T14:44:05;39.70;51.80
17986;DHT22;9118;48.122;11.546;2022-08-11T14:46:52;39.90;51.00
17986;DHT22;9118;48.122;11.546;2022-08-11T14:49:34;40.10;50.80
17986;DHT22;9118;48.122;11.546;2022-08-11T14:52:03;40.40;50.30
17986;DHT22;9118;48.122;11.546;2022-08-11T14:54:33;40.30;49.20
17986;DHT22;9118;48.122;11.546;2022-08-11T14:57:18;40.30;49.20
17986;DHT22;9118;48.122;11.546;2022-08-11T14:59:48;40.30;48.60
17986;DHT22;9118;48.122;11.546;2022-08-11T15:02:18;40.30;48.70
17986;DHT22;9118;48.122;11.546;2022-08-11T15:05:04;40.00;48.90
17986;DHT22;9118;48.122;11.546;2022-08-11T15:07:32;38.60;49.90
17986;DHT22;9118;48.122;11.546;2022-08-11T15:10:03;37.00;50.70
17986;DHT22;9118;48.122;11.546;2022-08-11T15:12:32;35.90;51.70
17986;DHT22;9118;48.122;11.546;2022-08-11T15:15:02;34.90;53.20
17986;DHT22;9118;48.122;11.546;2022-08-11T15:17:52;34.20;54.10
17986;DHT22;9118;48.122;11.546;2022-08-11T15:20:22;34.00;54.50
17986;DHT22;9118;48.122;11.546;2022-08-11T15:23:07;34.30;54.50
17986;DHT22;9118;48.122;11.546;2022-08-11T15:25:55;34.30;54.60
17986;DHT22;9118;48.122;11.546;2022-08-11T15:28:24;34.30;54.20
17986;DHT22;9118;48.122;11.546;2022-08-11T15:31:09;35.10;53.70
17986;DHT22;9118;48.122;11.546;2022-08-11T15:33:59;36.50;52.80
17986;DHT22;9118;48.122;11.546;2022-08-11T15:36:47;37.70;52.00
17986;DHT22;9118;48.122;11.546;2022-08-11T15:39:35;38.20;50.30
17986;DHT22;9118;48.122;11.546;2022-08-11T15:42:24;37.90;49.90
17986;DHT22;9118;48.122;11.546;2022-08-11T15:45:08;37.50;49.40
17986;DHT22;9118;48.122;11.546;2022-08-11T15:47:55;36.80;50.00
17986;DHT22;9118;48.122;11.546;2022-08-11T15:50:30;36.40;49.70
17986;DHT22;9118;48.122;11.546;2022-08-11T15:53:01;37.00;50.10
17986;DHT22;9118;48.122;11.546;2022-08-11T15:55:28;36.50;50.10
17986;DHT22;9118;48.122;11.546;2022-08-11T15:58:02;35.60;50.90
17986;DHT22;9118;48.122;11.546;2022-08-11T16:00:49;34.70;51.70
17986;DHT22;9118;48.122;11.546;2022-08-11T16:03:44;33.80;52.50
17986;DHT22;9118;48.122;11.546;2022-08-11T16:06:32;32.70;53.60
17986;DHT22;9118;48.122;11.546;2022-08-11T16:09:01;31.70;54.30
17986;DHT22;9118;48.122;11.546;2022-08-11T16:11:33;31.10;55.30
17986;DHT22;9118;48.122;11.546;2022-08-11T16:14:02;30.50;56.40
17986;DHT22;9118;48.122;11.546;2022-08-11T16:16:49;30.10;57.00
17986;DHT22;9118;48.122;11.546;2022-08-11T16:19:18;29.70;57.20
17986;DHT22;9118;48.122;11.546;2022-08-11T16:21:48;29.50;57.30
17986;DHT22;9118;48.122;11.546;2022-08-11T16:24:19;29.40;57.80
17986;DHT22;9118;48.122;11.546;2022-08-11T16:26:47;29.50;57.10
17986;DHT22;9118;48.122;11.546;2022-08-11T16:29:15;29.80;56.90
17986;DHT22;9118;48.122;11.546;2022-08-11T16:31:44;29.70;57.10
17986;DHT22;9118;48.122;11.546;2022-08-11T16:34:32;29.80;56.80
17986;DHT22;9118;48.122;11.546;2022-08-11T16:37:22;29.60;56.60
17986;DHT22;9118;48.122;11.546;2022-08-11T16:40:07;29.30;56.60
17986;DHT22;9118;48.122;11.546;2022-08-11T16:42:36;28.90;57.50
17986;DHT22;9118;48.122;11.546;2022-08-11T16:45:22;28.70;57.80
17986;DHT22;9118;48.122;11.546;2022-08-11T16:48:08;28.50;58.80
17986;DHT22;9118;48.122;11.546;2022-08-11T16:50:37;28.40;59.00
17986;DHT22;9118;48.122;11.546;2022-08-11T16:53:06;28.40;59.70
17986;DHT22;9118;48.122;11.546;2022-08-11T16:55:34;28.40;59.50
17986;DHT22;9118;48.122;11.546;2022-08-11T16:58:02;28.50;59.20
17986;DHT22;9118;48.122;11.546;2022-08-11T17:00:47;28.40;59.70
17986;DHT22;9118;48.122;11.546;2022-08-11T17:03:15;28.20;60.60
17986;DHT22;9118;48.122;11.546;2022-08-11T17:06:03;28.00;60.70
17986;DHT22;9118;48.122;11.546;2022-08-11T17:08:52;27.90;60.50
17986;DHT22;9118;48.122;11.546;2022-08-11T17:11:41;27.70;61.20
17986;DHT22;9118;48.122;11.546;2022-08-11T17:14:33;27.50;61.70
17986;DHT22;9118;48.122;11.546;2022-08-11T17:17:02;27.30;62.40
17986;DHT22;9118;48.122;11.546;2022-08-11T17:19:32;27.20;63.00
17986;DHT22;9118;48.122;11.546;2022-08-11T17:22:01;27.10;63.40
17986;DHT22;9118;48.122;11.546;2022-08-11T17:24:49;26.90;63.90
17986;DHT22;9118;48.122;11.546;2022-08-11T17:27:17;26.80;64.20
17986;DHT22;9118;48.122;11.546;2022-08-11T17:29:48;26.70;64.40
17986;DHT22;9118;48.122;11.546;2022-08-11T17:32:19;26.60;64.70
17986;DHT22;9118;48.122;11.546;2022-08-11T17:35:08;26.50;64.80
17986;DHT22;9118;48.122;11.546;2022-08-11T17:37:58;26.40;65.20